createdAt,value
2018-02-05T00:00:50.399Z,86.36
2018-02-05T00:02:00.445Z,86.46
2018-02-05T00:03:10.230Z,86.74
2018-02-05T00:04:20.281Z,86.65
2018-02-05T00:05:30.067Z,86.36
2018-02-05T00:06:39.869Z,86.46
2018-02-05T00:07:49.910Z,86.27
2018-02-05T00:08:59.767Z,86.27
2018-02-05T00:10:09.031Z,86.36
2018-02-05T00:11:18.867Z,86.74
2018-02-05T00:12:28.962Z,86.55
2018-02-05T00:13:39.013Z,86.83
2018-02-05T00:14:49.066Z,86.65
2018-02-05T00:15:59.100Z,86.55
2018-02-05T00:17:08.874Z,86.83
2018-02-05T00:18:18.921Z,86.18
2018-02-05T00:19:28.984Z,86.08
2018-02-05T00:20:39.106Z,85.99
2018-02-05T00:21:49.149Z,85.99
2018-02-05T00:22:58.942Z,85.99
2018-02-05T00:24:09.001Z,86.08
2018-02-05T00:25:18.520Z,86.18
2018-02-05T00:26:28.568Z,86.65
2018-02-05T00:27:38.618Z,86.18
2018-02-05T00:28:48.649Z,86.08
2018-02-05T00:29:58.429Z,86.27
2018-02-05T00:31:08.538Z,86.27
2018-02-05T00:32:18.631Z,86.27
2018-02-05T00:33:28.420Z,86.08
2018-02-05T00:34:38.466Z,86.55
2018-02-05T00:35:48.554Z,86.04
2018-02-05T00:36:58.352Z,86.04
2018-02-05T00:38:08.411Z,86.27
2018-02-05T00:39:17.943Z,86.22
2018-02-05T00:40:27.975Z,86.6
2018-02-05T00:41:38.006Z,86.22
2018-02-05T00:42:48.047Z,86.22
2018-02-05T00:43:57.837Z,86.22
2018-02-05T00:45:07.873Z,86.22
2018-02-05T00:46:17.665Z,86.22
2018-02-05T00:47:27.711Z,86.32
2018-02-05T00:48:37.492Z,86.32
2018-02-05T00:49:47.268Z,86.04
2018-02-05T00:50:57.311Z,85.94
2018-02-05T00:52:07.365Z,86.13
2018-02-05T00:53:17.415Z,86.41
2018-02-05T00:54:27.470Z,86.32
2018-02-05T00:55:37.537Z,86.41
2018-02-05T00:56:47.583Z,86.22
2018-02-05T00:57:57.615Z,86.6
2018-02-05T00:59:08.666Z,86.13
2018-02-05T01:00:18.448Z,86.13
2018-02-05T01:01:27.963Z,86.51
2018-02-05T01:02:38.018Z,86.41
2018-02-05T01:03:48.057Z,86.51
2018-02-05T01:04:58.113Z,86.41
2018-02-05T01:06:07.894Z,86.51
2018-02-05T01:07:17.942Z,86.6
2018-02-05T01:08:28.007Z,86.13
2018-02-05T01:09:38.049Z,86.41
2018-02-05T01:10:48.090Z,86.32
2018-02-05T01:11:58.138Z,86.04
2018-02-05T01:13:08.172Z,86.22
2018-02-05T01:14:18.213Z,86.22
2018-02-05T01:15:28.367Z,86.22
2018-02-05T01:16:38.418Z,86.22
2018-02-05T01:17:48.462Z,86.41
2018-02-05T01:18:58.232Z,86.41
2018-02-05T01:20:08.010Z,86.22
2018-02-05T01:21:18.043Z,86.22
2018-02-05T01:22:28.098Z,86.22
2018-02-05T01:23:37.680Z,86.41
2018-02-05T01:24:47.443Z,86.04
2018-02-05T01:25:57.486Z,86.13
2018-02-05T01:27:07.535Z,86.32
2018-02-05T01:28:17.577Z,86.04
2018-02-05T01:29:27.345Z,86.79
2018-02-05T01:30:37.446Z,86.32
2018-02-05T01:31:47.502Z,86.04
2018-02-05T01:32:57.560Z,86.6
2018-02-05T01:34:07.346Z,86.6
2018-02-05T01:35:16.858Z,86.32
2018-02-05T01:36:26.379Z,86.13
2018-02-05T01:37:36.428Z,86.13
2018-02-05T01:38:46.470Z,86.04
2018-02-05T01:39:56.250Z,86.13
2018-02-05T01:41:06.025Z,86.04
2018-02-05T01:42:16.075Z,86.32
2018-02-05T01:43:25.857Z,86.41
2018-02-05T01:44:35.896Z,86.51
2018-02-05T01:45:45.948Z,86.41
2018-02-05T01:46:55.726Z,86.13
2018-02-05T01:48:05.510Z,86.51
2018-02-05T01:49:15.295Z,86.04
2018-02-05T01:50:25.079Z,85.94
2018-02-05T01:51:35.128Z,86.04
2018-02-05T01:52:45.217Z,86.04
2018-02-05T01:53:55.046Z,86.13
2018-02-05T01:55:04.834Z,85.94
2018-02-05T01:56:14.613Z,86.41
2018-02-05T01:57:24.652Z,86.7
2018-02-05T01:58:34.427Z,86.6
2018-02-05T01:59:44.460Z,86.22
2018-02-05T02:00:54.240Z,86.41
2018-02-05T02:02:04.273Z,86.79
2018-02-05T02:03:14.311Z,86.22
2018-02-05T02:04:24.101Z,86.22
2018-02-05T02:05:33.929Z,86.32
2018-02-05T02:06:43.979Z,86.6
2018-02-05T02:07:54.029Z,86.22
2018-02-05T02:09:03.814Z,86.41
2018-02-05T02:10:13.840Z,86.6
2018-02-05T02:11:23.877Z,86.79
2018-02-05T02:12:33.927Z,86.41
2018-02-05T02:13:43.706Z,86.41
2018-02-05T02:14:53.483Z,86.41
2018-02-05T02:16:03.319Z,86.04
2018-02-05T02:17:12.834Z,86.13
2018-02-05T02:18:22.884Z,86.41
2018-02-05T02:19:32.949Z,85.94
2018-02-05T02:20:42.745Z,86.41
2018-02-05T02:21:52.518Z,86.32
2018-02-05T02:23:02.569Z,86.32
2018-02-05T02:24:12.385Z,86.32
2018-02-05T02:25:22.426Z,86.22
2018-02-05T02:26:32.467Z,86.51
2018-02-05T02:27:42.512Z,86.6
2018-02-05T02:28:52.562Z,86.22
2018-02-05T02:30:02.592Z,86.41
2018-02-05T02:31:12.389Z,86.32
2018-02-05T02:32:21.928Z,86.04
2018-02-05T02:33:31.714Z,86.13
2018-02-05T02:34:41.782Z,86.51
2018-02-05T02:35:51.910Z,86.13
2018-02-05T02:37:01.702Z,86.13
2018-02-05T02:38:11.749Z,86.13
2018-02-05T02:39:21.799Z,86.04
2018-02-05T02:40:31.636Z,86.22
2018-02-05T02:41:41.418Z,86.41
2018-02-05T02:42:51.259Z,85.94
2018-02-05T02:44:01.310Z,86.04
2018-02-05T02:45:11.094Z,85.94
2018-02-05T02:46:20.923Z,86.13
2018-02-05T02:47:30.966Z,86.13
2018-02-05T02:48:41.010Z,86.04
2018-02-05T02:49:51.065Z,86.41
2018-02-05T02:51:00.605Z,86.79
2018-02-05T02:52:11.564Z,86.41
2018-02-05T02:53:21.636Z,86.04
2018-02-05T02:54:31.663Z,86.32
2018-02-05T02:55:41.457Z,86.41
2018-02-05T02:56:51.523Z,86.6
2018-02-05T02:58:01.346Z,86.79
2018-02-05T02:59:11.409Z,86.41
2018-02-05T03:00:21.201Z,86.32
2018-02-05T03:01:31.224Z,86.09
2018-02-05T03:02:41.304Z,86.04
2018-02-05T03:35:10.635Z,83.78
2018-02-05T03:36:20.419Z,84.26
2018-02-05T03:37:30.448Z,85.01
2018-02-05T03:38:40.492Z,85.77
2018-02-05T03:39:50.272Z,86.52
2018-02-05T03:41:00.357Z,87.18
2018-02-05T03:42:10.387Z,87.66
2018-02-05T03:43:20.424Z,87.94
2018-02-05T03:44:30.458Z,87.85
2018-02-05T03:45:39.981Z,88.13
2018-02-05T03:46:50.017Z,87.98
2018-02-05T03:48:00.068Z,88.36
2018-02-05T03:49:09.597Z,87.98
2018-02-05T03:50:19.632Z,87.7
2018-02-05T03:51:29.672Z,87.61
2018-02-05T03:52:39.721Z,87.89
2018-02-05T03:53:49.777Z,87.51
2018-02-05T03:54:59.819Z,87.37
2018-02-05T03:56:09.875Z,86.9
2018-02-05T03:57:19.918Z,87.18
2018-02-05T03:58:29.972Z,87.27
2018-02-05T03:59:40.046Z,87.08
2018-02-05T04:00:50.083Z,86.8
2018-02-05T04:02:00.134Z,86.9
2018-02-05T04:03:09.921Z,86.9
2018-02-05T04:04:19.972Z,86.52
2018-02-05T04:05:29.995Z,86.71
2018-02-05T04:06:40.033Z,86.71
2018-02-05T04:07:50.068Z,86.8
2018-02-05T04:09:00.119Z,86.14
2018-02-05T04:10:10.219Z,86.18
2018-02-05T04:11:20.259Z,85.99
2018-02-05T04:12:29.774Z,86.18
2018-02-05T04:13:39.812Z,86.85
2018-02-05T04:14:49.859Z,86.56
2018-02-05T04:15:59.959Z,86.47
2018-02-05T04:17:10.012Z,86.37
2018-02-05T04:18:20.061Z,86.56
2018-02-05T04:19:30.109Z,86.47
2018-02-05T04:20:39.897Z,86.37
2018-02-05T04:21:49.928Z,85.9
2018-02-05T04:22:59.986Z,85.99
2018-02-05T04:24:09.764Z,85.99
2018-02-05T04:25:19.563Z,86.37
2018-02-05T04:26:29.357Z,85.9
2018-02-05T04:27:39.143Z,86.37
2018-02-05T04:28:49.182Z,86.18
2018-02-05T04:29:59.227Z,86.09
2018-02-05T04:31:09.014Z,86.09
2018-02-05T04:32:19.052Z,86.47
2018-02-05T04:33:29.158Z,86.47
2018-02-05T04:34:39.198Z,85.99
2018-02-05T04:35:49.247Z,86.47
2018-02-05T04:36:59.302Z,86.47
2018-02-05T04:38:08.571Z,86.28
2018-02-05T04:39:18.361Z,86.47
2018-02-05T04:40:28.151Z,86.56
2018-02-05T04:41:38.194Z,86.56
2018-02-05T04:42:48.247Z,86.47
2018-02-05T04:43:58.020Z,86.18
2018-02-05T04:45:07.288Z,86.18
2018-02-05T04:46:17.067Z,86.09
2018-02-05T04:47:26.862Z,86.09
2018-02-05T04:48:36.915Z,86.09
2018-02-05T04:49:46.952Z,86.47
2018-02-05T04:50:56.994Z,86.28
2018-02-05T04:52:07.026Z,86.28
2018-02-05T04:53:17.066Z,86.37
2018-02-05T04:54:27.164Z,86.47
2018-02-05T04:55:37.264Z,86.47
2018-02-05T04:56:47.361Z,86.47
2018-02-05T04:57:57.403Z,86.37
2018-02-05T04:59:07.505Z,86.47
2018-02-05T05:00:17.544Z,86.18
2018-02-05T05:01:27.586Z,86.28
2018-02-05T05:02:37.459Z,86.47
2018-02-05T05:03:47.495Z,86.47
2018-02-05T05:04:57.528Z,85.9
2018-02-05T05:06:07.302Z,86.47
2018-02-05T05:07:17.072Z,86.47
2018-02-05T05:08:27.125Z,86.47
2018-02-05T05:09:37.153Z,86.18
2018-02-05T05:10:47.202Z,86.18
2018-02-05T05:11:57.342Z,85.99
2018-02-05T05:13:07.067Z,85.99
2018-02-05T05:14:17.124Z,86.47
2018-02-05T05:15:27.161Z,86.47
2018-02-05T05:16:37.222Z,86.09
2018-02-05T05:17:47.255Z,86.09
2018-02-05T05:18:57.052Z,85.99
2018-02-05T05:20:07.152Z,85.99
2018-02-05T05:21:16.939Z,86.18
2018-02-05T05:22:26.980Z,86.09
2018-02-05T05:23:37.027Z,86.56
2018-02-05T05:24:46.804Z,86.28
2018-02-05T05:25:56.879Z,86.37
2018-02-05T05:27:06.923Z,85.8
2018-02-05T05:28:16.960Z,85.8
2018-02-05T05:29:26.754Z,86.09
2018-02-05T05:30:36.798Z,86.28
2018-02-05T05:31:46.583Z,86.28
2018-02-05T05:32:56.113Z,86.28
2018-02-05T05:34:06.224Z,86.28
2018-02-05T05:35:16.005Z,86.37
2018-02-05T05:36:25.527Z,86.47
2018-02-05T05:37:35.301Z,86.47
2018-02-05T05:38:44.559Z,86.56
2018-02-05T05:39:54.595Z,86.37
2018-02-05T05:41:04.118Z,86.28
2018-02-05T05:42:13.909Z,85.9
2018-02-05T05:43:23.998Z,85.9
2018-02-05T05:44:33.803Z,85.99
2018-02-05T05:45:43.839Z,85.9
2018-02-05T05:46:53.876Z,85.9
2018-02-05T05:48:03.916Z,85.8
2018-02-05T05:49:13.447Z,85.9
2018-02-05T05:50:23.496Z,86.18
2018-02-05T05:51:33.288Z,85.99
2018-02-05T05:52:43.076Z,86.09
2018-02-05T05:53:53.126Z,86.18
2018-02-05T05:55:02.909Z,85.9
2018-02-05T05:56:13.035Z,85.71
2018-02-05T05:57:22.819Z,85.71
2018-02-05T05:58:32.873Z,85.9
2018-02-05T05:59:42.922Z,85.9
2018-02-05T06:00:52.450Z,85.99
2018-02-05T06:02:02.485Z,85.99
2018-02-05T06:03:12.530Z,85.99
2018-02-05T06:04:22.324Z,85.99
2018-02-05T06:05:32.360Z,86.09
2018-02-05T06:06:41.876Z,85.99
2018-02-05T06:07:51.930Z,85.9
2018-02-05T06:09:01.970Z,86.18
2018-02-05T06:10:11.747Z,85.99
2018-02-05T06:11:21.780Z,85.99
2018-02-05T06:12:31.585Z,85.9
2018-02-05T06:13:41.116Z,85.9
2018-02-05T06:14:50.886Z,85.71
2018-02-05T06:16:00.677Z,85.8
2018-02-05T06:17:10.717Z,85.9
2018-02-05T06:18:20.801Z,86.09
2018-02-05T06:19:30.840Z,85.99
2018-02-05T06:20:40.618Z,85.9
2018-02-05T06:21:50.410Z,86.37
2018-02-05T06:23:00.459Z,86.28
2018-02-05T06:24:10.238Z,85.8
2018-02-05T06:25:20.031Z,86.09
2018-02-05T06:26:29.843Z,86.09
2018-02-05T06:27:39.883Z,85.9
2018-02-05T06:28:49.676Z,85.42
2018-02-05T06:29:59.448Z,85.42
2018-02-05T06:31:09.224Z,85.33
2018-02-05T06:32:19.254Z,86.56
2018-02-05T06:33:28.815Z,85.9
2018-02-05T06:34:38.876Z,85.52
2018-02-05T06:35:48.671Z,85.9
2018-02-05T06:36:58.720Z,85.9
2018-02-05T06:38:08.513Z,85.71
2018-02-05T06:39:18.552Z,85.71
2018-02-05T06:40:28.327Z,85.61
2018-02-05T06:41:38.380Z,85.8
2018-02-05T06:42:48.173Z,85.8
2018-02-05T06:43:58.223Z,85.71
2018-02-05T06:45:08.259Z,85.52
2018-02-05T06:46:18.041Z,85.71
2018-02-05T06:47:27.859Z,85.71
2018-02-05T06:48:37.930Z,85.8
2018-02-05T06:49:47.975Z,85.42
2018-02-05T06:50:57.759Z,85.33
2018-02-05T06:52:07.797Z,85.52
2018-02-05T06:53:17.842Z,85.42
2018-02-05T06:54:27.878Z,85.8
2018-02-05T06:55:37.917Z,85.05
2018-02-05T06:56:48.007Z,85.52
2018-02-05T06:57:58.087Z,85.19
2018-02-05T06:59:08.136Z,85.05
2018-02-05T07:00:17.920Z,85.47
2018-02-05T07:01:27.949Z,85.85
2018-02-05T07:02:37.985Z,85.75
2018-02-05T07:03:48.030Z,85.57
2018-02-05T07:04:57.871Z,85.66
2018-02-05T07:06:07.901Z,85.57
2018-02-05T07:07:18.189Z,85.85
2018-02-05T07:08:28.234Z,85.57
2018-02-05T07:09:38.069Z,85.09
2018-02-05T07:10:48.114Z,85.19
2018-02-05T07:11:58.171Z,85.47
2018-02-05T07:13:07.959Z,85.66
2018-02-05T07:14:17.996Z,85.38
2018-02-05T07:15:28.053Z,85.38
2018-02-05T07:16:38.103Z,85.09
2018-02-05T07:17:47.881Z,85.66
2018-02-05T07:18:57.672Z,85.66
2018-02-05T07:20:07.717Z,85.75
2018-02-05T07:21:17.774Z,85.13
2018-02-05T07:22:27.808Z,85.13
2018-02-05T07:23:37.916Z,85.32
2018-02-05T07:24:47.957Z,85.13
2018-02-05T07:25:58.009Z,85.23
2018-02-05T07:27:08.039Z,85.13
2018-02-05T07:28:18.071Z,85.04
2018-02-05T07:29:27.849Z,85.23
2018-02-05T07:30:37.883Z,85.13
2018-02-05T07:31:47.936Z,85.23
2018-02-05T07:32:57.727Z,84.94
2018-02-05T07:34:07.775Z,85.27
2018-02-05T07:35:17.805Z,84.99
2018-02-05T07:36:27.591Z,85.46
2018-02-05T07:37:37.652Z,85.17
2018-02-05T07:38:47.446Z,84.89
2018-02-05T07:39:57.531Z,85.36
2018-02-05T07:41:07.326Z,85.36
2018-02-05T07:42:16.881Z,85.08
2018-02-05T07:43:26.923Z,85.27
2018-02-05T07:44:36.965Z,85.08
2018-02-05T07:45:47.091Z,85.36
2018-02-05T07:46:57.138Z,85.08
2018-02-05T07:48:07.184Z,85.27
2018-02-05T07:49:17.293Z,85.27
2018-02-05T07:50:27.087Z,85.27
2018-02-05T07:51:36.861Z,85.27
2018-02-05T07:52:46.915Z,85.08
2018-02-05T07:53:56.687Z,85.08
2018-02-05T07:55:06.752Z,85.27
2018-02-05T07:56:16.806Z,85.08
2018-02-05T07:57:26.851Z,85.08
2018-02-05T07:58:36.901Z,85.22
2018-02-05T07:59:46.955Z,85.69
2018-02-05T08:00:56.996Z,85.31
2018-02-05T08:02:06.847Z,85.5
2018-02-05T08:03:16.441Z,85.69
2018-02-05T08:04:26.484Z,85.78
2018-02-05T08:05:36.288Z,85.6
2018-02-05T08:06:46.343Z,85.69
2018-02-05T08:07:56.180Z,85.6
2018-02-05T08:09:06.302Z,85.6
2018-02-05T08:10:16.342Z,85.5
2018-02-05T08:11:26.384Z,85.31
2018-02-05T08:12:36.440Z,85.88
2018-02-05T08:13:46.493Z,85.55
2018-02-05T08:14:56.271Z,85.36
2018-02-05T08:16:06.355Z,85.36
2018-02-05T08:17:16.147Z,85.83
2018-02-05T08:18:26.204Z,85.36
2018-02-05T08:19:36.247Z,85.45
2018-02-05T08:20:46.032Z,85.45
2018-02-05T08:21:56.073Z,85.45
2018-02-05T08:23:06.134Z,85.55
2018-02-05T08:24:16.183Z,85.64
2018-02-05T08:25:25.981Z,85.36
2018-02-05T08:26:36.015Z,85.3
2018-02-05T08:27:46.059Z,85.78
2018-02-05T08:28:55.847Z,85.49
2018-02-05T08:30:05.647Z,85.4
2018-02-05T08:31:15.696Z,85.4
2018-02-05T08:32:25.766Z,85.49
2018-02-05T08:33:35.805Z,85.49
2018-02-05T08:34:45.856Z,85.3
2018-02-05T08:35:55.913Z,85.59
2018-02-05T08:37:06.035Z,85.59
2018-02-05T08:38:16.065Z,86.07
2018-02-05T08:39:26.114Z,85.4
2018-02-05T08:40:36.173Z,85.87
2018-02-05T08:41:45.964Z,85.87
2018-02-05T08:42:56.073Z,85.87
2018-02-05T08:44:06.124Z,85.82
2018-02-05T08:45:16.813Z,86.07
2018-02-05T08:46:26.858Z,86.07
2018-02-05T08:47:36.644Z,85.72
2018-02-05T08:48:46.696Z,85.63
2018-02-05T08:49:56.734Z,85.82
2018-02-05T08:51:06.785Z,86.01
2018-02-05T08:52:16.842Z,85.91
2018-02-05T08:53:26.884Z,85.82
2018-02-05T08:54:36.940Z,85.82
2018-02-05T08:55:47.067Z,86.01
2018-02-05T08:56:56.799Z,86.11
2018-02-05T08:58:06.853Z,85.35
2018-02-05T08:59:16.890Z,85.44
2018-02-05T09:00:26.935Z,85.53
2018-02-05T09:01:36.980Z,85.44
2018-02-05T09:02:47.029Z,85.72
2018-02-05T09:03:56.298Z,85.91
2018-02-05T09:05:06.343Z,85.77
2018-02-05T09:06:16.413Z,85.77
2018-02-05T09:07:26.452Z,85.44
2018-02-05T09:08:36.496Z,85.86
2018-02-05T09:09:46.274Z,85.58
2018-02-05T09:10:56.325Z,85.68
2018-02-05T09:12:06.359Z,85.68
2018-02-05T09:13:16.159Z,85.86
2018-02-05T09:14:25.951Z,85.68
2018-02-05T09:15:36.006Z,86.05
2018-02-05T09:16:45.794Z,86.05
2018-02-05T09:17:55.868Z,85.68
2018-02-05T09:19:05.927Z,85.68
2018-02-05T09:20:15.712Z,85.58
2018-02-05T09:21:25.494Z,85.96
2018-02-05T09:22:35.566Z,85.77
2018-02-05T09:23:45.097Z,85.77
2018-02-05T09:24:55.139Z,85.68
2018-02-05T09:26:04.941Z,85.62
2018-02-05T09:27:14.727Z,86.1
2018-02-05T09:28:24.770Z,86
2018-02-05T09:29:34.829Z,85.72
2018-02-05T09:30:44.879Z,86
2018-02-05T09:31:54.913Z,85.81
2018-02-05T09:33:04.982Z,85.81
2018-02-05T09:34:14.790Z,85.62
2018-02-05T09:35:24.850Z,85.53
2018-02-05T09:36:34.898Z,85.34
2018-02-05T09:37:44.936Z,85.34
2018-02-05T09:38:54.997Z,85.34
2018-02-05T09:40:04.773Z,86
2018-02-05T09:41:14.824Z,85.91
2018-02-05T09:42:24.888Z,85.62
2018-02-05T09:43:34.664Z,85.34
2018-02-05T09:44:44.723Z,85.62
2018-02-05T09:45:54.767Z,86
2018-02-05T09:47:04.839Z,85.76
2018-02-05T09:48:14.881Z,86
2018-02-05T09:49:24.672Z,85.91
2018-02-05T09:50:34.449Z,85.91
2018-02-05T09:51:44.227Z,85.91
2018-02-05T09:52:53.865Z,86.19
2018-02-05T09:54:03.940Z,85.62
2018-02-05T09:55:13.990Z,85.53
2018-02-05T09:56:24.073Z,86
2018-02-05T09:57:33.875Z,86.05
2018-02-05T09:58:43.928Z,86.14
2018-02-05T09:59:53.699Z,85.76
2018-02-05T10:01:03.522Z,85.38
2018-02-05T10:02:13.633Z,85.38
2018-02-05T10:03:23.682Z,85.57
2018-02-05T10:04:33.731Z,85.57
2018-02-05T10:05:43.782Z,86.05
2018-02-05T10:06:53.979Z,85.86
2018-02-05T10:08:04.089Z,85.95
2018-02-05T10:09:14.161Z,85.86
2018-02-05T10:10:23.977Z,85.57
2018-02-05T10:11:33.772Z,85.38
2018-02-05T10:12:43.817Z,85.76
2018-02-05T10:13:53.629Z,85.57
2018-02-05T10:15:02.908Z,85.47
2018-02-05T10:16:12.969Z,85.95
2018-02-05T10:17:23.040Z,85.47
2018-02-05T10:18:33.092Z,85.57
2018-02-05T10:19:42.958Z,85.66
2018-02-05T10:20:53.014Z,85.61
2018-02-05T10:22:03.061Z,85.9
2018-02-05T10:23:12.838Z,85.8
2018-02-05T10:24:22.890Z,85.71
2018-02-05T10:25:32.687Z,85.24
2018-02-05T10:26:42.749Z,85.33
2018-02-05T10:27:52.812Z,85.24
2018-02-05T10:29:02.596Z,85.33
2018-02-05T10:30:12.660Z,85.61
2018-02-05T10:31:22.716Z,85.71
2018-02-05T10:32:32.257Z,85.33
2018-02-05T10:33:42.314Z,85.61
2018-02-05T10:34:52.102Z,85.24
2018-02-05T10:36:02.147Z,84.85
2018-02-05T10:37:12.204Z,85.14
2018-02-05T10:38:21.486Z,85.04
2018-02-05T10:39:31.542Z,84.95
2018-02-05T10:40:41.584Z,85.14
2018-02-05T10:41:51.639Z,85.04
2018-02-05T10:43:01.530Z,84.89
2018-02-05T10:44:11.336Z,85.18
2018-02-05T10:45:21.367Z,85.28
2018-02-05T10:46:30.890Z,85.28
2018-02-05T10:47:40.682Z,85.37
2018-02-05T10:48:50.746Z,85.18
2018-02-05T10:50:00.876Z,84.8
2018-02-05T10:51:10.938Z,84.7
2018-02-05T10:52:20.723Z,84.99
2018-02-05T10:53:30.770Z,85.18
2018-02-05T10:54:40.298Z,84.89
2018-02-05T10:55:50.367Z,84.89
2018-02-05T10:57:00.434Z,84.8
2018-02-05T10:58:10.499Z,84.99
2018-02-05T10:59:20.292Z,84.99
2018-02-05T11:00:30.350Z,85.28
2018-02-05T11:01:40.982Z,85.37
2018-02-05T11:02:51.041Z,85.71
2018-02-05T11:04:01.091Z,85.52
2018-02-05T11:05:11.177Z,85.9
2018-02-05T11:06:21.218Z,85.9
2018-02-05T11:07:31.000Z,86.18
2018-02-05T11:08:41.058Z,86.09
2018-02-05T11:09:51.108Z,86.94
2018-02-05T11:11:01.176Z,86.38
2018-02-05T11:12:11.246Z,86.47
2018-02-05T11:13:21.298Z,86.33
2018-02-05T11:14:31.452Z,86.57
2018-02-05T11:15:41.494Z,86.38
2018-02-05T11:16:51.281Z,86.38
2018-02-05T11:18:01.068Z,85.99
2018-02-05T11:19:11.182Z,86.94
2018-02-05T11:20:20.973Z,85.99
2018-02-05T11:21:30.792Z,86.66
2018-02-05T11:22:40.825Z,86.94
2018-02-05T11:23:50.877Z,85.9
2018-02-05T11:25:00.653Z,86.38
2018-02-05T11:26:11.105Z,86.09
2018-02-05T11:27:21.144Z,86.09
2018-02-05T11:28:31.453Z,86.18
2018-02-05T11:29:41.256Z,85.71
2018-02-05T11:30:51.308Z,85.9
2018-02-05T11:32:01.363Z,85.71
2018-02-05T11:33:10.899Z,85.8
2018-02-05T11:34:20.695Z,85.52
2018-02-05T11:35:30.513Z,85.61
2018-02-05T11:36:40.574Z,85.71
2018-02-05T11:37:50.661Z,85.33
2018-02-05T11:39:00.451Z,85.52
2018-02-05T11:40:10.500Z,85.52
2018-02-05T11:41:20.573Z,85.08
2018-02-05T11:42:30.627Z,85.28
2018-02-05T11:43:40.527Z,85.85
2018-02-05T11:44:50.717Z,85.18
2018-02-05T11:46:00.774Z,85.28
2018-02-05T11:47:10.832Z,85.37
2018-02-05T11:48:20.903Z,85.47
2018-02-05T11:49:30.957Z,85.08
2018-02-05T11:50:41.003Z,85.08
2018-02-05T11:51:51.075Z,85.08
2018-02-05T11:53:01.192Z,84.99
2018-02-05T11:54:10.987Z,84.89
2018-02-05T11:55:21.037Z,84.89
2018-02-05T11:56:30.823Z,85.18
2018-02-05T11:57:40.614Z,84.89
2018-02-05T11:58:50.760Z,85.32
2018-02-05T12:00:00.825Z,85.32
2018-02-05T12:01:10.868Z,85.32
2018-02-05T12:02:20.923Z,85.32
2018-02-05T12:03:30.970Z,84.84
2018-02-05T12:04:41.048Z,85.03
2018-02-05T12:05:51.153Z,85.03
2018-02-05T12:07:01.198Z,84.75
2018-02-05T12:08:11.269Z,85.32
2018-02-05T12:09:20.853Z,85.41
2018-02-05T12:10:31.008Z,85.7
2018-02-05T12:11:41.048Z,85.89
2018-02-05T12:12:50.830Z,85.41
2018-02-05T12:14:00.366Z,85.6
2018-02-05T12:15:10.174Z,85.51
2018-02-05T12:16:19.976Z,85.89
2018-02-05T12:17:30.036Z,85.7
2018-02-05T12:18:39.840Z,86.04
2018-02-05T12:19:49.889Z,86.18
2018-02-05T12:20:59.949Z,85.99
2018-02-05T12:22:09.744Z,85.66
2018-02-05T12:23:19.800Z,85.66
2018-02-05T12:24:29.584Z,86.32
2018-02-05T12:25:39.654Z,86.13
2018-02-05T12:26:49.695Z,86.13
2018-02-05T12:27:59.529Z,86.42
2018-02-05T12:29:09.336Z,86.9
2018-02-05T12:30:19.390Z,86.22
2018-02-05T12:31:29.179Z,86.61
2018-02-05T12:32:39.236Z,86.51
2018-02-05T12:33:49.354Z,86.51
2018-02-05T12:34:59.407Z,86.61
2018-02-05T12:36:09.482Z,86.42
2018-02-05T12:37:19.533Z,86.47
2018-02-05T12:38:29.058Z,86.42
2018-02-05T12:39:39.103Z,86.28
2018-02-05T12:40:49.161Z,85.85
2018-02-05T12:41:58.992Z,86.38
2018-02-05T12:43:09.035Z,86.04
2018-02-05T12:44:19.083Z,86.13
2018-02-05T12:45:29.160Z,86.13
2018-02-05T12:46:39.195Z,86.22
2018-02-05T12:47:49.259Z,85.94
2018-02-05T12:48:58.808Z,85.85
2018-02-05T12:50:08.880Z,86.04
2018-02-05T12:51:19.002Z,86.22
2018-02-05T12:52:29.055Z,85.56
2018-02-05T12:53:38.851Z,86.32
2018-02-05T12:54:48.913Z,86.22
2018-02-05T12:55:58.714Z,86.04
2018-02-05T12:57:08.777Z,85.99
2018-02-05T12:58:18.464Z,86.04
2018-02-05T12:59:28.519Z,85.99
2018-02-05T13:00:38.587Z,86.04
2018-02-05T13:01:48.374Z,86.09
2018-02-05T13:02:58.420Z,86.47
2018-02-05T13:04:08.477Z,86.18
2018-02-05T13:05:18.549Z,86.18
2018-02-05T13:06:28.602Z,86.66
2018-02-05T13:07:38.157Z,86.28
2018-02-05T13:08:48.365Z,85.9
2018-02-05T13:09:58.468Z,86.38
2018-02-05T13:11:08.524Z,86.38
2018-02-05T13:12:18.596Z,86.66
2018-02-05T13:13:28.405Z,86.09
2018-02-05T13:14:38.463Z,86.09
2018-02-05T13:15:48.518Z,85.99
2018-02-05T13:16:58.296Z,86.38
2018-02-05T13:18:08.119Z,85.9
2018-02-05T13:19:18.162Z,86.18
2018-02-05T13:20:28.212Z,86.57
2018-02-05T13:21:38.013Z,86.09
2018-02-05T13:22:48.085Z,87.04
2018-02-05T13:23:58.155Z,85.99
2018-02-05T13:25:07.969Z,86.38
2018-02-05T13:26:17.815Z,86.18
2018-02-05T13:27:27.891Z,86.09
2018-02-05T13:28:37.954Z,86.38
2018-02-05T13:29:48.024Z,86.57
2018-02-05T13:30:58.071Z,86.18
2018-02-05T13:32:08.142Z,86.38
2018-02-05T13:33:18.214Z,86.38
2018-02-05T13:34:28.067Z,86.38
2018-02-05T13:35:38.128Z,86.43
2018-02-05T13:36:48.193Z,86.71
2018-02-05T13:37:57.992Z,86.61
2018-02-05T13:39:08.060Z,86.33
2018-02-05T13:40:18.112Z,87.19
2018-02-05T13:41:28.140Z,86.8
2018-02-05T13:42:38.175Z,86.9
2018-02-05T13:43:47.957Z,86.52
2018-02-05T13:44:58.672Z,86.52
2018-02-05T13:46:08.779Z,86.99
2018-02-05T13:47:18.827Z,86.61
2018-02-05T13:48:28.624Z,86.8
2018-02-05T13:49:38.735Z,86.52
2018-02-05T13:50:48.786Z,86.52
2018-02-05T13:51:58.860Z,86.8
2018-02-05T13:53:08.658Z,86.71
2018-02-05T13:54:18.710Z,87.14
2018-02-05T13:55:28.764Z,86.47
2018-02-05T13:56:38.550Z,87.14
2018-02-05T13:57:48.339Z,86.8
2018-02-05T13:58:58.380Z,86.8
2018-02-05T14:00:08.176Z,86.61
2018-02-05T14:01:18.234Z,86.29
2018-02-05T14:02:28.035Z,86.33
2018-02-05T14:03:38.093Z,86.43
2018-02-05T14:04:47.875Z,86.29
2018-02-05T14:05:57.933Z,86.8
2018-02-05T14:07:08.040Z,86.47
2018-02-05T14:08:18.108Z,86.47
2018-02-05T14:09:28.154Z,86.67
2018-02-05T14:10:38.208Z,86.29
2018-02-05T14:11:48.304Z,86.67
2018-02-05T14:12:58.092Z,86.38
2018-02-05T14:14:08.162Z,87.05
2018-02-05T14:15:17.932Z,86.76
2018-02-05T14:16:28.012Z,86.76
2018-02-05T14:17:37.558Z,87.43
2018-02-05T14:18:47.655Z,87.05
2018-02-05T14:19:57.718Z,87.14
2018-02-05T14:21:07.777Z,86.86
2018-02-05T14:22:17.835Z,86.95
2018-02-05T14:23:27.634Z,87.34
2018-02-05T14:24:37.502Z,87.14
2018-02-05T14:25:47.560Z,87.14
2018-02-05T14:26:57.632Z,87.52
2018-02-05T14:28:07.684Z,87.52
2018-02-05T14:29:17.497Z,86.86
2018-02-05T14:30:27.036Z,87.34
2018-02-05T14:31:37.105Z,87.24
2018-02-05T14:32:46.956Z,86.76
2018-02-05T14:33:56.762Z,87.05
2018-02-05T14:35:06.819Z,86.67
2018-02-05T14:36:16.405Z,86.76
2018-02-05T14:37:26.462Z,87.24
2018-02-05T14:38:36.509Z,86.67
2018-02-05T14:39:46.580Z,86.76
2018-02-05T14:40:56.648Z,87.34
2018-02-05T14:42:06.711Z,87.14
2018-02-05T14:43:16.527Z,86.67
2018-02-05T14:44:26.574Z,86.63
2018-02-05T14:45:36.371Z,86.57
2018-02-05T14:46:46.416Z,87.48
2018-02-05T14:47:56.489Z,87.1
2018-02-05T14:49:06.558Z,87.29
2018-02-05T14:50:16.598Z,86.91
2018-02-05T14:51:26.648Z,86.72
2018-02-05T14:52:36.686Z,86.72
2018-02-05T14:53:46.211Z,87.29
2018-02-05T14:54:55.739Z,86.91
2018-02-05T14:56:05.836Z,86.82
2018-02-05T14:57:15.891Z,87.29
2018-02-05T14:58:25.940Z,87.01
2018-02-05T14:59:36.000Z,86.91
2018-02-05T15:00:46.044Z,86.91
2018-02-05T15:01:56.105Z,86.82
2018-02-05T15:03:06.162Z,86.91
2018-02-05T15:04:16.205Z,86.82
2018-02-05T15:05:26.311Z,86.91
2018-02-05T15:06:36.355Z,87.01
2018-02-05T15:07:46.403Z,87.48
2018-02-05T15:08:57.255Z,87.1
2018-02-05T15:10:07.321Z,87.29
2018-02-05T15:11:17.190Z,87.29
2018-02-05T15:12:26.991Z,87.1
2018-02-05T15:13:37.099Z,87.29
2018-02-05T15:14:46.885Z,87.57
2018-02-05T15:15:56.945Z,87.29
2018-02-05T15:17:07.021Z,87.38
2018-02-05T15:18:17.127Z,87.24
2018-02-05T15:19:27.186Z,87.29
2018-02-05T15:20:37.252Z,87.38
2018-02-05T15:21:47.047Z,87.29
2018-02-05T15:22:56.831Z,87.24
2018-02-05T15:24:06.678Z,87.15
2018-02-05T15:25:16.469Z,87.72
2018-02-05T15:26:26.533Z,87.62
2018-02-05T15:27:36.603Z,87.72
2018-02-05T15:28:46.665Z,87.53
2018-02-05T15:29:56.787Z,87.43
2018-02-05T15:31:06.848Z,87.62
2018-02-05T15:32:16.901Z,87.43
2018-02-05T15:33:26.967Z,87.24
2018-02-05T15:34:37.012Z,87.62
2018-02-05T15:35:47.115Z,88.01